Sharp Lady — 2EKQ4 — position and weather

sailwx.info

Track history (hours):
 
Tides and Currents Weather Stations Pressure Air Temp Water Temp Dewpoint Dewpoint Depression Visibility Wind Speed Wind Dir Waves Ship Positions

Sharp Lady

Last reported at 2014-Aug-01 09:08 UTC. Time now 2014-Aug-01 16:04 UTC.
Position N 57°49' E 010°12'.

Length 250 m; draft 12.9 m.

Type: Ship. MMSI: 235090261.

Date/timePositionNaut miles runAvg speedWind from/ knotsBaromVisibWave heightAir tempDewpointWater temp
2014-Aug-01 09:08N 57°49' E 010°12'610.8
2014-Aug-01 08:33N 57°49' E 010°24'1010.2
2014-Aug-01 07:33N 57°48' E 010°43'8 8.1
2014-Aug-01 06:33N 57°41' E 010°47'1110.7
2014-Aug-01 05:33N 57°34' E 011°04'1111.0
2014-Aug-01 04:33N 57°29' E 011°22'1110.6
2014-Aug-01 03:33N 57°20' E 011°32'1111.4
2014-Aug-01 02:33N 57°10' E 011°38'1211.7
2014-Aug-01 01:33N 56°58' E 011°45'1111.3
2014-Aug-01 00:33N 56°48' E 011°52'1111.0
2014-Jul-31 23:33N 56°37' E 011°45'1211.6
2014-Jul-31 22:33N 56°27' E 011°34'107 9.5
2014-Jul-31 11:15N 54°44' E 010°47'7 9.1
2014-Jul-31 10:29N 54°38' E 010°54'9 9.5
2014-Jul-31 09:33N 54°36' E 011°09'1010.1
2014-Jul-31 08:33N 54°32' E 011°25'1110.5
2014-Jul-31 07:33N 54°28' E 011°41'1010.5
2014-Jul-31 06:33N 54°26' E 011°59'9 9.1
2014-Jul-31 05:33N 54°30' E 012°13'1111.1
2014-Jul-31 04:33N 54°39' E 012°24'1212.0
2014-Jul-31 03:33N 54°46' E 012°42'1211.8
2014-Jul-31 02:33N 54°51' E 013°00'1211.9
2014-Jul-31 01:33N 54°56' E 013°19'1211.8
2014-Jul-31 00:33N 55°00' E 013°38'1812.0
2014-Jul-30 23:06N 55°07' E 014°07'712.1
2014-Jul-30 22:33N 55°09' E 014°17'1211.9
2014-Jul-30 21:33N 55°15' E 014°35'1010.0
2014-Jul-30 20:33N 55°21' E 014°49'1212.1
2014-Jul-30 19:33N 55°29' E 015°06'1312.6
2014-Jul-30 18:33N 55°37' E 015°23'1212.0
2014-Jul-30 17:33N 55°42' E 015°42'1512.3
2014-Jul-30 16:18N 55°46' E 016°09'912.3
2014-Jul-30 15:33N 55°48' E 016°25'1212.2
2014-Jul-30 14:33N 55°51' E 016°46'1212.3
2014-Jul-30 13:33N 55°54' E 017°07'1212.3
2014-Jul-30 12:33N 55°57' E 017°29'1212.0
2014-Jul-30 11:33N 56°01' E 017°48'1212.1
2014-Jul-30 10:33N 56°08' E 018°06'1212.1
2014-Jul-30 09:33N 56°14' E 018°25'1212.3
2014-Jul-30 08:33N 56°21' E 018°44'2412.1
2014-Jul-30 06:32N 56°42' E 019°05'1212.3
2014-Jul-30 05:33N 56°53' E 019°16'1312.4
2014-Jul-30 04:29N 57°04' E 019°27'1112.3
2014-Jul-30 03:33N 57°14' E 019°37'1412.4
2014-Jul-30 02:27N 57°27' E 019°48'1112.4
2014-Jul-30 01:33N 57°37' E 019°57'1212.4
2014-Jul-30 00:33N 57°48' E 020°06'1612.5
2014-Jul-29 23:19N 58°03' E 020°17'912.2
2014-Jul-29 22:33N 58°11' E 020°25'1212.3
2014-Jul-29 21:33N 58°21' E 020°38'1312.3
2014-Jul-29 20:32N 58°32' E 020°51'1212.6
2014-Jul-29 19:33N 58°42' E 021°04'1312.7
2014-Jul-29 18:33N 58°53' E 021°17'1212.4
2014-Jul-29 17:33N 59°03' E 021°30'1212.0
2014-Jul-29 16:33N 59°12' E 021°45'1512.4
2014-Jul-29 15:22N 59°21' E 022°08'1012.1
2014-Jul-29 14:33N 59°27' E 022°23'1211.5
2014-Jul-29 13:33N 59°32' E 022°44'1512.1
2014-Jul-29 12:19N 59°36' E 023°13'912.0
2014-Jul-29 11:33N 59°38' E 023°30'1312.3
2014-Jul-29 10:31N 59°41' E 023°54'1212.0
2014-Jul-29 09:33N 59°44' E 024°16'1110.6
2014-Jul-29 08:33N 59°43' E 024°37'1312.3
2014-Jul-29 07:31N 59°34' E 024°55'4 0.1
2014-Jul-27 12:09N 59°30' E 024°58'0 0.0
2014-Jul-27 11:33N 59°30' E 024°58'0 0.0
2014-Jul-25 13:33N 59°30' E 024°58'0 0.0
2014-Jul-24 13:30N 59°30' E 024°58'6 6.0
2014-Jul-24 12:34N 59°35' E 024°52'2 1.9
2014-Jul-24 11:31N 59°36' E 024°49'0 0.0
2014-Jul-24 10:28N 59°36' E 024°49'0 0.0
2014-Jul-24 09:31N 59°36' E 024°49'0 0.0
2014-Jul-24 08:13N 59°36' E 024°49'0 0.0
2014-Jul-24 07:28N 59°36' E 024°49'0 0.0
2014-Jul-24 06:31N 59°36' E 024°49'0 0.0
2014-Jul-24 05:31N 59°36' E 024°49'0 0.0
2014-Jul-24 01:04N 59°36' E 024°49'0 0.0
2014-Jul-23 06:07N 59°36' E 024°49'0 0.0
2014-Jul-23 05:31N 59°36' E 024°49'0 0.0
2014-Jul-23 03:25N 59°36' E 024°49'0 0.0
2014-Jul-23 02:31N 59°36' E 024°49'0 0.0
2014-Jul-23 01:31N 59°36' E 024°49'0 0.1
2014-Jul-23 00:31N 59°36' E 024°49'0 0.0
2014-Jul-22 23:31N 59°36' E 024°49'0 0.1
2014-Jul-22 22:28N 59°36' E 024°49'0 0.0
2014-Jul-22 15:19N 59°36' E 024°49'0 0.0
2014-Jul-22 09:19N 59°36' E 024°49'  
Track history (hours):
 
Tides and Currents Weather Stations Pressure Air Temp Water Temp Dewpoint Dewpoint Depression Visibility Wind Speed Wind Dir Waves Ship Positions

Sharp Lady

Last reported at 2014-Aug-01 09:08 UTC. Time now 2014-Aug-01 16:04 UTC.
Position N 57°49' E 010°12'.

Length 250 m; draft 12.9 m.

Type: Ship. MMSI: 235090261.

Date/timePositionNaut miles runAvg speedWind from/ knotsBaromVisibWave heightAir tempDewpointWater temp
2014-Aug-01 09:08N 57°49' E 010°12'610.8
2014-Aug-01 08:33N 57°49' E 010°24'1010.2
2014-Aug-01 07:33N 57°48' E 010°43'8 8.1
2014-Aug-01 06:33N 57°41' E 010°47'1110.7
2014-Aug-01 05:33N 57°34' E 011°04'1111.0
2014-Aug-01 04:33N 57°29' E 011°22'1110.6
2014-Aug-01 03:33N 57°20' E 011°32'1111.4
2014-Aug-01 02:33N 57°10' E 011°38'1211.7
2014-Aug-01 01:33N 56°58' E 011°45'1111.3
2014-Aug-01 00:33N 56°48' E 011°52'1111.0
2014-Jul-31 23:33N 56°37' E 011°45'1211.6
2014-Jul-31 22:33N 56°27' E 011°34'107 9.5
2014-Jul-31 11:15N 54°44' E 010°47'7 9.1
2014-Jul-31 10:29N 54°38' E 010°54'9 9.5
2014-Jul-31 09:33N 54°36' E 011°09'1010.1
2014-Jul-31 08:33N 54°32' E 011°25'1110.5
2014-Jul-31 07:33N 54°28' E 011°41'1010.5
2014-Jul-31 06:33N 54°26' E 011°59'9 9.1
2014-Jul-31 05:33N 54°30' E 012°13'1111.1
2014-Jul-31 04:33N 54°39' E 012°24'1212.0
2014-Jul-31 03:33N 54°46' E 012°42'1211.8
2014-Jul-31 02:33N 54°51' E 013°00'1211.9
2014-Jul-31 01:33N 54°56' E 013°19'1211.8
2014-Jul-31 00:33N 55°00' E 013°38'1812.0
2014-Jul-30 23:06N 55°07' E 014°07'712.1
2014-Jul-30 22:33N 55°09' E 014°17'1211.9
2014-Jul-30 21:33N 55°15' E 014°35'1010.0
2014-Jul-30 20:33N 55°21' E 014°49'1212.1
2014-Jul-30 19:33N 55°29' E 015°06'1312.6
2014-Jul-30 18:33N 55°37' E 015°23'1212.0
2014-Jul-30 17:33N 55°42' E 015°42'1512.3
2014-Jul-30 16:18N 55°46' E 016°09'912.3
2014-Jul-30 15:33N 55°48' E 016°25'1212.2
2014-Jul-30 14:33N 55°51' E 016°46'1212.3
2014-Jul-30 13:33N 55°54' E 017°07'1212.3
2014-Jul-30 12:33N 55°57' E 017°29'1212.0
2014-Jul-30 11:33N 56°01' E 017°48'1212.1
2014-Jul-30 10:33N 56°08' E 018°06'1212.1
2014-Jul-30 09:33N 56°14' E 018°25'1212.3
2014-Jul-30 08:33N 56°21' E 018°44'2412.1
2014-Jul-30 06:32N 56°42' E 019°05'1212.3
2014-Jul-30 05:33N 56°53' E 019°16'1312.4
2014-Jul-30 04:29N 57°04' E 019°27'1112.3
2014-Jul-30 03:33N 57°14' E 019°37'1412.4
2014-Jul-30 02:27N 57°27' E 019°48'1112.4
2014-Jul-30 01:33N 57°37' E 019°57'1212.4
2014-Jul-30 00:33N 57°48' E 020°06'1612.5
2014-Jul-29 23:19N 58°03' E 020°17'912.2
2014-Jul-29 22:33N 58°11' E 020°25'1212.3
2014-Jul-29 21:33N 58°21' E 020°38'1312.3
2014-Jul-29 20:32N 58°32' E 020°51'1212.6
2014-Jul-29 19:33N 58°42' E 021°04'1312.7
2014-Jul-29 18:33N 58°53' E 021°17'1212.4
2014-Jul-29 17:33N 59°03' E 021°30'1212.0
2014-Jul-29 16:33N 59°12' E 021°45'1512.4
2014-Jul-29 15:22N 59°21' E 022°08'1012.1
2014-Jul-29 14:33N 59°27' E 022°23'1211.5
2014-Jul-29 13:33N 59°32' E 022°44'1512.1
2014-Jul-29 12:19N 59°36' E 023°13'912.0
2014-Jul-29 11:33N 59°38' E 023°30'1312.3
2014-Jul-29 10:31N 59°41' E 023°54'1212.0
2014-Jul-29 09:33N 59°44' E 024°16'1110.6
2014-Jul-29 08:33N 59°43' E 024°37'1312.3
2014-Jul-29 07:31N 59°34' E 024°55'4 0.1
2014-Jul-27 12:09N 59°30' E 024°58'0 0.0
2014-Jul-27 11:33N 59°30' E 024°58'0 0.0
2014-Jul-25 13:33N 59°30' E 024°58'0 0.0
2014-Jul-24 13:30N 59°30' E 024°58'6 6.0
2014-Jul-24 12:34N 59°35' E 024°52'2 1.9
2014-Jul-24 11:31N 59°36' E 024°49'0 0.0
2014-Jul-24 10:28N 59°36' E 024°49'0 0.0
2014-Jul-24 09:31N 59°36' E 024°49'0 0.0
2014-Jul-24 08:13N 59°36' E 024°49'0 0.0
2014-Jul-24 07:28N 59°36' E 024°49'0 0.0
2014-Jul-24 06:31N 59°36' E 024°49'0 0.0
2014-Jul-24 05:31N 59°36' E 024°49'0 0.0
2014-Jul-24 01:04N 59°36' E 024°49'0 0.0
2014-Jul-23 06:07N 59°36' E 024°49'0 0.0
2014-Jul-23 05:31N 59°36' E 024°49'0 0.0
2014-Jul-23 03:25N 59°36' E 024°49'0 0.0
2014-Jul-23 02:31N 59°36' E 024°49'0 0.0
2014-Jul-23 01:31N 59°36' E 024°49'0 0.1
2014-Jul-23 00:31N 59°36' E 024°49'0 0.0
2014-Jul-22 23:31N 59°36' E 024°49'0 0.1
2014-Jul-22 22:28N 59°36' E 024°49'0 0.0
2014-Jul-22 15:19N 59°36' E 024°49'0 0.0
2014-Jul-22 09:19N 59°36' E 024°49'  

Dump ship's entire track history